Time;durP1;ratioP1;P1;durP2;ratioP2;P2;SDS_P1;SDS_P2;PMS_P1;PMS_P2;Temp;Humidity;BMP_temperature;BMP_pressure;BME280_temperature;BME280_humidity;BME280_pressure;Samples;Min_cycle;Max_cycle;Signal;HPM_P1;HPM_P2
2021/03/29 00:00:07;;;;;;;7.53;6.15;;;;;;;7.46;63.17;101384.77;1723040;82;21183;-52
2021/03/29 00:02:35;;;;;;;10.25;6.47;;;;;;;7.40;63.60;101392.97;1722463;82;21614;-51
2021/03/29 00:05:06;;;;;;;8.98;6.22;;;;;;;7.45;63.50;101389.14;1750513;81;21115;-62
2021/03/29 00:07:33;;;;;;;8.38;6.28;;;;;;;7.49;63.47;101387.44;1760589;81;21618;-63
2021/03/29 00:10:05;;;;;;;9.15;6.17;;;;;;;7.33;63.93;101384.55;1739880;81;21176;-52
2021/03/29 00:12:35;;;;;;;9.83;7.03;;;;;;;7.49;63.64;101383.09;1739312;81;21511;-52
2021/03/29 00:15:06;;;;;;;8.58;6.90;;;;;;;7.57;63.45;101385.39;1735185;81;21198;-51
2021/03/29 00:17:38;;;;;;;9.83;6.75;;;;;;;7.48;63.53;101379.13;1732087;81;21111;-51
2021/03/29 00:20:19;;;;;;;10.23;7.17;;;;;;;7.55;63.45;101371.38;1731799;82;21170;-52
2021/03/29 00:22:47;;;;;;;9.43;6.47;;;;;;;7.53;63.60;101371.78;1758731;81;21565;-50
2021/03/29 00:25:16;;;;;;;9.53;6.87;;;;;;;7.46;63.82;101366.02;1761460;81;21167;-64
2021/03/29 00:27:44;;;;;;;10.15;7.85;;;;;;;7.26;64.50;101357.83;1761406;81;21305;-64
2021/03/29 00:30:18;;;;;;;9.00;7.08;;;;;;;7.51;64.07;101352.98;1761506;81;21551;-51
2021/03/29 00:32:47;;;;;;;10.00;7.45;;;;;;;7.25;64.71;101354.75;1760352;81;21142;-51
2021/03/29 00:35:17;;;;;;;9.53;7.67;;;;;;;7.28;64.64;101349.56;1761336;81;21170;-51
2021/03/29 00:37:50;;;;;;;10.63;8.08;;;;;;;7.43;64.54;101350.24;1761441;81;21127;-63
2021/03/29 00:40:19;;;;;;;10.15;8.23;;;;;;;7.35;64.85;101341.38;1760049;81;21091;-64
2021/03/29 00:43:00;;;;;;;10.70;8.25;;;;;;;7.29;64.94;101346.06;1761575;81;21162;-64
2021/03/29 00:45:30;;;;;;;13.03;8.98;;;;;;;7.59;64.29;101341.75;1761013;81;21152;-51
2021/03/29 00:47:57;;;;;;;12.75;9.90;;;;;;;7.61;64.11;101332.63;1744658;81;21538;-63
2021/03/29 00:50:50;;;;;;;13.90;8.95;;;;;;;7.57;64.21;101326.88;1760174;81;21119;-64
2021/03/29 00:53:18;;;;;;;11.10;8.40;;;;;;;7.44;64.28;101333.23;1761157;81;21103;-63
2021/03/29 00:55:48;;;;;;;11.83;8.23;;;;;;;7.59;64.07;101321.23;1749942;81;21115;-63
2021/03/29 00:58:18;;;;;;;12.35;9.60;;;;;;;7.54;64.08;101330.76;1728024;81;21133;-63
2021/03/29 01:01:00;;;;;;;12.90;9.78;;;;;;;7.52;64.27;101324.61;1761738;81;21139;-52
2021/03/29 01:03:31;;;;;;;11.68;9.43;;;;;;;7.56;64.06;101329.05;1761480;81;21546;-63
2021/03/29 01:06:05;;;;;;;13.80;10.98;;;;;;;7.64;63.94;101319.98;1761469;81;21131;-64
2021/03/29 01:08:36;;;;;;;12.50;9.30;;;;;;;7.65;63.86;101324.37;1754452;81;21119;-62
2021/03/29 01:11:06;;;;;;;12.95;10.18;;;;;;;7.55;64.02;101322.91;1761254;81;21211;-63
2021/03/29 01:13:38;;;;;;;11.28;9.30;;;;;;;7.59;64.08;101311.63;1735106;81;21097;-51
2021/03/29 01:16:06;;;;;;;11.22;9.23;;;;;;;7.56;64.16;101311.57;1725897;81;21582;-52
2021/03/29 01:18:35;;;;;;;12.25;9.08;;;;;;;7.54;64.06;101318.52;1711433;81;21134;-63
2021/03/29 01:21:26;;;;;;;10.82;8.08;;;;;;;7.58;64.01;101308.55;1744242;81;21119;-63
2021/03/29 01:24:00;;;;;;;9.13;7.28;;;;;;;7.47;64.00;101309.25;1761447;81;21459;-63
2021/03/29 01:26:35;;;;;;;11.33;8.63;;;;;;;7.43;64.08;101305.27;1725219;82;21142;-63
2021/03/29 01:29:03;;;;;;;11.57;8.20;;;;;;;7.54;63.99;101308.48;1699876;84;21164;-63
2021/03/29 01:31:33;;;;;;;10.23;8.68;;;;;;;7.52;64.06;101307.14;1694605;83;21164;-51
2021/03/29 01:34:02;;;;;;;9.50;7.30;;;;;;;7.51;63.95;101290.97;1696580;83;21296;-64
2021/03/29 01:36:31;;;;;;;11.27;7.60;;;;;;;7.58;63.76;101288.03;1690967;85;21122;-51
2021/03/29 01:38:59;;;;;;;10.38;7.72;;;;;;;7.53;63.70;101287.95;1656493;85;21653;-52
2021/03/29 01:41:26;;;;;;;9.50;7.42;;;;;;;7.54;63.72;101290.16;1696486;84;21615;-64
2021/03/29 01:43:55;;;;;;;12.15;8.75;;;;;;;7.51;63.89;101283.55;1711724;83;21198;-52
2021/03/29 01:46:23;;;;;;;10.48;8.25;;;;;;;7.57;63.74;101291.06;1707239;84;21599;-64
2021/03/29 01:48:51;;;;;;;11.97;8.53;;;;;;;7.46;63.87;101270.41;1703459;84;21158;-51
2021/03/29 01:51:18;;;;;;;11.20;8.38;;;;;;;7.52;63.78;101275.70;1708879;84;21155;-52
2021/03/29 01:53:46;;;;;;;9.85;7.67;;;;;;;7.54;63.83;101275.74;1668258;84;21150;-52
2021/03/29 01:56:14;;;;;;;10.93;8.05;;;;;;;7.45;64.13;101271.26;1700403;84;21162;-63
2021/03/29 01:58:43;;;;;;;11.47;8.87;;;;;;;7.39;64.18;101269.41;1695697;83;21144;-64
2021/03/29 02:01:12;;;;;;;9.60;7.45;;;;;;;8.29;61.80;101266.66;1695062;85;21200;-51
2021/03/29 02:03:40;;;;;;;11.00;8.10;;;;;;;8.33;61.25;101267.14;1707146;84;21281;-51
2021/03/29 02:06:10;;;;;;;8.55;6.92;;;;;;;8.27;61.32;101262.27;1671839;85;21155;-63
2021/03/29 02:08:39;;;;;;;9.30;7.67;;;;;;;8.39;60.93;101254.95;1693086;84;21191;-63
2021/03/29 02:11:07;;;;;;;9.77;7.27;;;;;;;8.39;60.71;101250.58;1729717;82;21143;-51
2021/03/29 02:13:40;;;;;;;9.93;7.45;;;;;;;8.36;60.86;101260.17;1748006;82;21127;-52
2021/03/29 02:16:10;;;;;;;8.80;7.28;;;;;;;8.26;61.10;101250.87;1747515;82;21139;-63
2021/03/29 02:18:41;;;;;;;10.13;8.25;;;;;;;8.35;60.97;101252.75;1748428;82;21183;-51
2021/03/29 02:21:12;;;;;;;12.03;7.90;;;;;;;8.33;61.12;101249.23;1744241;81;21865;-63
2021/03/29 02:23:42;;;;;;;9.93;8.13;;;;;;;8.37;61.15;101245.77;1712183;84;21103;-52
2021/03/29 02:26:10;;;;;;;12.30;8.50;;;;;;;8.41;60.93;101242.73;1747209;82;21289;-52
2021/03/29 02:28:39;;;;;;;12.82;8.43;;;;;;;8.52;60.73;101241.15;1745686;82;21574;-51
2021/03/29 02:31:07;;;;;;;11.20;8.48;;;;;;;8.44;60.96;101242.77;1746393;82;21167;-51
2021/03/29 02:33:34;;;;;;;10.75;7.50;;;;;;;8.46;60.85;101242.36;1724743;83;21162;-53
2021/03/29 02:36:04;;;;;;;12.88;8.80;;;;;;;8.44;60.97;101234.45;1718617;82;21135;-51
2021/03/29 02:38:31;;;;;;;10.55;8.10;;;;;;;8.44;61.07;101226.59;1729876;82;21135;-62
2021/03/29 02:41:00;;;;;;;10.15;8.25;;;;;;;8.48;61.04;101224.48;1748412;82;21151;-52
2021/03/29 02:43:28;;;;;;;9.68;6.25;;;;;;;8.33;61.55;101229.11;1745777;81;21123;-52
2021/03/29 02:46:00;;;;;;;10.08;7.20;;;;;;;8.23;61.79;101215.44;1748097;81;21124;-53
2021/03/29 02:48:32;;;;;;;9.65;7.08;;;;;;;8.38;61.23;101217.78;1725929;82;21123;-53
2021/03/29 02:51:02;;;;;;;9.93;7.67;;;;;;;8.18;61.61;101222.38;1718624;83;21159;-63
2021/03/29 02:53:31;;;;;;;12.63;7.25;;;;;;;8.25;61.69;101225.52;1722012;82;21256;-62
2021/03/29 02:56:07;;;;;;;12.82;8.23;;;;;;;8.27;61.64;101227.72;1752162;82;21138;-54
2021/03/29 02:58:39;;;;;;;10.00;7.80;;;;;;;8.13;62.30;101225.41;1708835;82;21705;-54
2021/03/29 03:01:12;;;;;;;8.73;6.87;;;;;;;8.29;62.02;101219.44;1718725;83;21590;-63
2021/03/29 03:03:41;;;;;;;8.85;6.70;;;;;;;8.32;62.09;101219.92;1718960;82;21316;-54
2021/03/29 03:06:09;;;;;;;7.10;5.50;;;;;;;8.31;62.03;101232.59;1733039;82;21084;-54
2021/03/29 03:08:37;;;;;;;8.00;5.47;;;;;;;8.22;62.18;101219.37;1748649;82;21142;-54
2021/03/29 03:11:11;;;;;;;8.18;6.20;;;;;;;8.18;61.91;101211.47;1744194;81;21131;-65
2021/03/29 03:13:43;;;;;;;7.65;5.72;;;;;;;8.12;62.05;101214.46;1718622;83;21159;-65
2021/03/29 03:16:11;;;;;;;9.10;6.87;;;;;;;8.13;62.12;101207.05;1725902;82;21208;-53
2021/03/29 03:18:39;;;;;;;10.25;7.25;;;;;;;7.82;63.21;101205.35;1683812;85;21162;-64
2021/03/29 03:21:11;;;;;;;8.50;5.72;;;;;;;8.11;62.73;101203.52;1718887;82;21612;-54
2021/03/29 03:23:38;;;;;;;9.67;7.13;;;;;;;7.84;63.64;101194.05;1725415;82;21307;-64
2021/03/29 03:26:06;;;;;;;8.98;6.62;;;;;;;7.92;63.68;101194.13;1746297;82;21120;-54
2021/03/29 03:28:34;;;;;;;7.55;5.65;;;;;;;8.17;63.19;101195.28;1748318;81;21191;-54
2021/03/29 03:31:02;;;;;;;10.25;6.40;;;;;;;7.95;63.76;101184.12;1724171;83;21605;-66
2021/03/29 03:33:29;;;;;;;8.40;6.50;;;;;;;7.81;64.19;101188.77;1733802;82;21147;-66
2021/03/29 03:35:58;;;;;;;9.55;6.67;;;;;;;7.87;64.18;101191.88;1748111;82;21167;-54
2021/03/29 03:38:30;;;;;;;6.55;5.28;;;;;;;7.99;63.80;101193.75;1712394;84;21150;-65
2021/03/29 03:41:12;;;;;;;7.90;5.87;;;;;;;8.02;63.67;101185.52;1741183;82;21582;-64
2021/03/29 03:43:49;;;;;;;7.33;5.03;;;;;;;7.96;63.59;101177.58;1744441;82;21084;-64
2021/03/29 03:46:28;;;;;;;5.60;4.15;;;;;;;7.69;64.35;101192.13;1748106;81;21171;-65
2021/03/29 03:49:00;;;;;;;7.67;5.28;;;;;;;7.65;64.45;101176.32;1748147;81;21273;-54
2021/03/29 03:51:28;;;;;;;6.40;4.37;;;;;;;7.75;64.02;101178.20;1730780;82;21160;-65
2021/03/29 03:53:55;;;;;;;6.17;4.22;;;;;;;7.79;64.00;101177.38;1748083;82;21139;-67
2021/03/29 03:56:23;;;;;;;7.05;5.05;;;;;;;7.56;64.74;101171.41;1748233;82;21598;-65
2021/03/29 03:58:51;;;;;;;9.55;6.08;;;;;;;7.86;64.24;101166.11;1748197;81;21158;-54
2021/03/29 04:01:19;;;;;;;7.42;4.65;;;;;;;7.88;63.98;101160.46;1719956;81;21596;-54
2021/03/29 04:03:48;;;;;;;8.75;6.00;;;;;;;7.78;64.32;101155.97;1731155;82;21543;-54
2021/03/29 04:06:16;;;;;;;7.17;5.60;;;;;;;7.69;64.74;101166.33;1731549;82;21324;-66
2021/03/29 04:08:45;;;;;;;7.67;5.47;;;;;;;7.79;64.58;101159.03;1733181;81;21115;-66
2021/03/29 04:11:14;;;;;;;7.47;5.55;;;;;;;7.72;64.86;101164.64;1671917;85;21510;-54
2021/03/29 04:13:42;;;;;;;7.70;5.25;;;;;;;7.86;64.40;101170.05;1732156;82;21154;-54
2021/03/29 04:16:10;;;;;;;5.97;4.03;;;;;;;7.71;64.65;101165.92;1732741;82;21277;-54
2021/03/29 04:18:39;;;;;;;6.95;4.87;;;;;;;7.52;65.04;101164.81;1673554;85;21130;-53
2021/03/29 04:21:08;;;;;;;5.97;4.00;;;;;;;7.95;64.14;101160.53;1670637;85;21138;-54
2021/03/29 04:23:36;;;;;;;5.10;3.37;;;;;;;7.81;64.01;101158.63;1734897;82;21569;-54
2021/03/29 04:26:05;;;;;;;5.45;3.72;;;;;;;7.68;64.08;101163.26;1732886;82;21135;-54
2021/03/29 04:28:33;;;;;;;5.28;3.42;;;;;;;7.97;63.45;101162.30;1730647;82;21143;-54
2021/03/29 04:31:02;;;;;;;6.15;3.90;;;;;;;7.86;63.85;101162.59;1731993;82;21161;-66
2021/03/29 04:33:30;;;;;;;5.25;3.55;;;;;;;8.07;63.39;101160.64;1728737;81;21127;-66
2021/03/29 04:35:58;;;;;;;4.83;3.30;;;;;;;7.91;63.75;101167.47;1720659;82;21177;-64
2021/03/29 04:38:26;;;;;;;4.25;2.87;;;;;;;7.99;63.67;101164.91;1744104;82;21542;-66
2021/03/29 04:40:54;;;;;;;3.70;2.27;;;;;;;7.88;63.17;101165.70;1748061;82;21316;-64
2021/03/29 04:43:22;;;;;;;3.30;1.62;;;;;;;7.93;62.68;101165.74;1748571;81;21143;-65
2021/03/29 04:45:52;;;;;;;3.05;1.90;;;;;;;7.85;62.56;101163.05;1742812;81;21423;-63
2021/03/29 04:48:20;;;;;;;3.22;1.92;;;;;;;7.89;62.47;101158.70;1720465;82;21551;-54
2021/03/29 04:50:47;;;;;;;2.37;1.47;;;;;;;7.80;62.60;101156.86;1718643;82;21535;-54
2021/03/29 04:53:15;;;;;;;2.80;1.52;;;;;;;7.79;62.66;101151.59;1722868;82;21254;-54
2021/03/29 04:55:45;;;;;;;2.47;1.32;;;;;;;7.69;62.82;101156.75;1673302;85;21159;-54
2021/03/29 04:58:12;;;;;;;2.42;1.70;;;;;;;7.82;62.52;101157.77;1739546;82;21163;-54
2021/03/29 05:00:40;;;;;;;2.58;1.50;;;;;;;7.65;62.71;101151.43;1748545;81;21159;-65
2021/03/29 05:03:08;;;;;;;1.90;1.20;;;;;;;7.42;63.18;101153.34;1748153;82;21108;-65
2021/03/29 05:05:36;;;;;;;2.25;1.50;;;;;;;7.37;62.81;101158.50;1737945;82;21173;-54
2021/03/29 05:08:05;;;;;;;2.50;1.25;;;;;;;7.19;63.27;101150.41;1731780;82;21530;-63
2021/03/29 05:10:35;;;;;;;2.33;1.47;;;;;;;7.40;62.68;101161.16;1731232;83;21209;-54
2021/03/29 05:13:03;;;;;;;2.83;1.60;;;;;;;7.21;63.25;101146.94;1738883;81;21625;-53
2021/03/29 05:15:32;;;;;;;3.17;1.60;;;;;;;7.23;63.47;101154.84;1758466;81;21131;-62
2021/03/29 05:18:00;;;;;;;3.20;1.87;;;;;;;7.20;63.47;101153.03;1731249;83;21138;-54
2021/03/29 05:20:29;;;;;;;7.50;2.65;;;;;;;7.23;63.65;101148.29;1734972;81;21152;-53
2021/03/29 05:22:58;;;;;;;3.45;1.72;;;;;;;7.42;63.10;101146.80;1683585;84;21133;-53
2021/03/29 05:25:26;;;;;;;3.08;1.50;;;;;;;7.39;63.04;101154.61;1691056;84;21165;-53
2021/03/29 05:27:54;;;;;;;3.83;1.52;;;;;;;7.47;62.98;101135.95;1702061;83;21684;-53
2021/03/29 05:30:23;;;;;;;2.42;1.40;;;;;;;7.29;63.11;101141.80;1705545;83;21155;-53
2021/03/29 05:32:53;;;;;;;2.10;1.30;;;;;;;7.27;62.94;101143.10;1699188;83;21704;-53
2021/03/29 05:35:21;;;;;;;2.27;1.30;;;;;;;7.49;62.65;101146.02;1695836;84;21373;-53
2021/03/29 05:37:51;;;;;;;3.37;1.40;;;;;;;7.34;62.62;101140.57;1682700;84;21199;-53
2021/03/29 05:40:19;;;;;;;2.30;1.40;;;;;;;7.41;62.38;101139.35;1716810;83;21164;-53
2021/03/29 05:42:48;;;;;;;3.45;1.77;;;;;;;7.35;62.69;101148.87;1707077;84;21136;-54
2021/03/29 05:45:17;;;;;;;4.12;1.67;;;;;;;7.45;62.48;101140.29;1703450;84;21171;-63
2021/03/29 05:47:44;;;;;;;2.42;1.72;;;;;;;7.47;62.53;101134.64;1668409;84;21202;-64
2021/03/29 05:50:16;;;;;;;2.72;1.85;;;;;;;7.50;62.60;101135.09;1691722;84;21640;-64
2021/03/29 05:52:44;;;;;;;3.50;2.12;;;;;;;7.51;62.57;101132.92;1705221;83;21705;-54
2021/03/29 05:55:16;;;;;;;4.35;2.08;;;;;;;7.39;62.80;101124.49;1699927;83;21167;-53
2021/03/29 06:00:39;;;;;;;2.98;1.90;;;;;;;7.53;62.75;101128.59;1676045;85;20148;-52
2021/03/29 06:03:27;;;;;;;3.75;2.52;;;;;;;7.50;62.84;101147.78;1707757;84;21633;-54
2021/03/29 06:05:59;;;;;;;4.17;2.92;;;;;;;7.52;63.09;101139.92;1672621;85;21711;-54
2021/03/29 06:08:28;;;;;;;3.90;2.90;;;;;;;7.48;63.13;101132.47;1723658;83;21135;-54
2021/03/29 06:10:58;;;;;;;4.22;3.08;;;;;;;7.57;62.92;101140.87;1725701;83;21335;-54
2021/03/29 06:13:30;;;;;;;3.50;2.67;;;;;;;7.54;63.13;101145.62;1714887;83;21286;-54
2021/03/29 06:16:10;;;;;;;3.87;3.10;;;;;;;7.59;63.03;101149.18;1698875;83;21170;-53
2021/03/29 06:18:50;;;;;;;3.83;2.72;;;;;;;7.49;63.09;101147.33;1712587;83;21135;-53
2021/03/29 06:21:18;;;;;;;3.90;3.20;;;;;;;7.68;62.93;101144.92;1694124;84;21178;-53
2021/03/29 06:23:59;;;;;;;4.40;3.40;;;;;;;7.66;63.03;101144.91;1666775;86;21170;-54
2021/03/29 06:26:32;;;;;;;6.78;3.30;;;;;;;7.71;62.95;101139.30;1679421;84;21576;-53
2021/03/29 06:29:01;;;;;;;4.95;3.52;;;;;;;7.73;62.98;101140.16;1699252;84;21622;-54
2021/03/29 06:31:33;;;;;;;7.12;3.95;;;;;;;7.66;63.41;101149.26;1625453;86;21174;-54
2021/03/29 06:34:01;;;;;;;4.53;3.75;;;;;;;7.66;63.44;101140.98;1687123;84;21149;-53
2021/03/29 06:36:36;;;;;;;6.22;4.17;;;;;;;7.79;63.19;101143.73;1711778;84;21132;-54
2021/03/29 06:39:19;;;;;;;12.10;9.03;;;;;;;7.56;63.87;101154.38;1714887;84;21171;-53
2021/03/29 06:41:56;;;;;;;44.45;27.60;;;;;;;6.89;66.52;101155.63;1684600;84;21197;-54
2021/03/29 06:44:30;;;;;;;15.43;10.93;;;;;;;6.80;67.22;101161.20;1704657;83;21144;-54
2021/03/29 06:47:09;;;;;;;11.93;10.40;;;;;;;6.82;67.78;101167.33;1696679;84;21240;-53
2021/03/29 06:49:48;;;;;;;13.55;11.55;;;;;;;6.88;67.87;101169.56;1696283;84;21625;-54
2021/03/29 06:52:30;;;;;;;47.60;37.33;;;;;;;7.73;65.59;101160.27;1689303;83;21608;-54
2021/03/29 06:55:29;;;;;;;49.65;43.30;;;;;;;8.04;64.75;101170.68;1690232;84;21167;-54
2021/03/29 06:58:10;;;;;;;122.65;103.87;;;;;;;8.10;64.80;101171.61;1687136;85;21163;-54
2021/03/29 07:00:38;;;;;;;37.95;32.03;;;;;;;8.14;64.90;101169.47;1699460;83;21191;-54
2021/03/29 07:03:09;;;;;;;32.75;29.18;;;;;;;8.13;65.08;101175.13;1699968;84;21608;-54
2021/03/29 07:05:37;;;;;;;22.27;18.55;;;;;;;8.33;64.77;101173.16;1692589;84;21173;-53
2021/03/29 07:08:09;;;;;;;17.62;14.75;;;;;;;8.25;65.14;101181.38;1664974;84;21622;-54
2021/03/29 07:10:37;;;;;;;34.78;27.70;;;;;;;8.39;64.93;101191.55;1691248;85;21569;-54
2021/03/29 07:13:08;;;;;;;49.57;43.93;;;;;;;8.48;64.67;101191.68;1756339;82;21210;-54
2021/03/29 07:15:36;;;;;;;92.85;81.28;;;;;;;8.52;64.49;101195.23;1738038;82;21598;-54
2021/03/29 07:18:06;;;;;;;30.35;26.55;;;;;;;8.63;64.34;101201.43;1755460;82;21127;-54
2021/03/29 07:20:34;;;;;;;17.15;14.85;;;;;;;8.71;64.19;101208.08;1730308;82;21227;-54
2021/03/29 07:23:03;;;;;;;13.40;11.97;;;;;;;8.71;64.22;101209.81;1741724;81;21581;-54
2021/03/29 07:25:35;;;;;;;10.88;9.50;;;;;;;8.87;63.88;101210.81;1745819;82;21297;-54
2021/03/29 07:28:09;;;;;;;26.23;22.55;;;;;;;8.90;63.79;101216.09;1754277;82;21187;-54
2021/03/29 07:30:54;;;;;;;23.55;19.65;;;;;;;8.92;63.64;101215.67;1726433;83;21158;-54
2021/03/29 07:33:24;;;;;;;17.52;13.03;;;;;;;8.97;63.67;101216.59;1734937;82;21154;-54
2021/03/29 07:35:56;;;;;;;14.47;10.20;;;;;;;8.96;63.79;101214.83;1706703;83;21200;-54
2021/03/29 07:38:26;;;;;;;25.97;14.15;;;;;;;8.97;63.95;101211.79;1727572;82;21574;-54
2021/03/29 07:40:57;;;;;;;300.13;170.00;;;;;;;8.98;64.26;101223.60;1739182;82;21462;-54
2021/03/29 07:43:27;;;;;;;221.47;154.53;;;;;;;9.11;64.29;101219.31;1756184;82;21313;-55
2021/03/29 07:46:05;;;;;;;17.40;11.85;;;;;;;9.23;64.38;101223.80;1756585;82;21159;-54
2021/03/29 07:48:44;;;;;;;30.97;18.73;;;;;;;9.13;63.59;101221.97;1736982;82;21301;-54
2021/03/29 07:51:16;;;;;;;34.58;22.87;;;;;;;9.40;63.29;101234.83;1756395;82;21276;-54
2021/03/29 07:53:52;;;;;;;24.65;15.48;;;;;;;9.41;62.66;101239.22;1756448;82;21574;-55
2021/03/29 07:56:38;;;;;;;14.13;8.55;;;;;;;9.46;62.65;101251.54;1716485;83;21142;-54
2021/03/29 07:59:06;;;;;;;15.55;9.53;;;;;;;9.45;62.46;101251.52;1756450;81;21654;-54
2021/03/29 08:01:58;;;;;;;61.08;38.85;;;;;;;9.44;62.12;101255.91;1756103;81;21189;-55
2021/03/29 08:05:05;;;;;;;24.12;14.87;;;;;;;9.50;62.19;101256.37;1756167;82;21554;-55
2021/03/29 08:07:47;;;;;;;26.35;16.37;;;;;;;9.58;61.82;101253.77;1757567;81;21736;-54
2021/03/29 08:10:17;;;;;;;21.12;13.58;;;;;;;9.61;61.86;101255.11;1761435;81;21578;-54
2021/03/29 08:13:00;;;;;;;31.80;20.60;;;;;;;9.55;62.01;101265.58;1761699;81;21162;-54
2021/03/29 08:16:09;;;;;;;26.80;18.00;;;;;;;9.49;61.97;101262.48;1760236;81;21168;-54
2021/03/29 08:19:24;;;;;;;15.98;11.75;;;;;;;9.43;62.04;101265.97;1746405;81;21277;-54
2021/03/29 08:21:57;;;;;;;20.15;14.23;;;;;;;9.24;62.09;101259.70;1739581;81;21154;-54
2021/03/29 08:24:34;;;;;;;16.70;11.22;;;;;;;9.25;62.66;101253.59;1733560;81;21170;-54
2021/03/29 08:27:18;;;;;;;24.77;18.62;;;;;;;9.31;62.77;101254.91;1758389;81;21170;-55
2021/03/29 08:29:53;;;;;;;13.80;10.08;;;;;;;9.41;63.27;101265.49;1761718;81;21188;-55
2021/03/29 08:32:31;;;;;;;10.43;6.87;;;;;;;9.55;63.95;101260.32;1761143;81;21178;-55
2021/03/29 08:35:11;;;;;;;15.68;9.18;;;;;;;9.61;63.34;101261.27;1760561;81;21306;-54
2021/03/29 08:37:50;;;;;;;;;;;;;;;9.65;62.82;101261.72;1759738;81;21558;-56
2021/03/29 08:40:24;;;;;;;23.15;11.70;;;;;;;9.79;62.70;101259.16;1761147;81;20119;-55
2021/03/29 08:42:59;;;;;;;32.53;19.25;;;;;;;9.77;62.70;101261.32;1761005;81;21614;-55
2021/03/29 08:45:27;;;;;;;20.55;14.25;;;;;;;9.76;62.33;101276.23;1744194;81;21651;-55
2021/03/29 08:47:58;;;;;;;34.67;24.95;;;;;;;9.87;62.56;101263.59;1750202;81;21159;-55
2021/03/29 08:50:34;;;;;;;29.48;18.90;;;;;;;9.89;62.85;101276.30;1746457;81;21281;-55
2021/03/29 08:53:09;;;;;;;36.38;23.32;;;;;;;9.95;62.72;101281.56;1749251;81;21215;-54
2021/03/29 08:55:39;;;;;;;71.87;54.18;;;;;;;9.95;62.41;101283.78;1735320;81;21142;-54
2021/03/29 08:58:08;;;;;;;39.55;31.30;;;;;;;9.95;62.46;101280.25;1748448;81;21110;-55
2021/03/29 09:00:42;;;;;;;27.70;24.75;;;;;;;10.02;62.28;101285.98;1739659;81;21166;-55
2021/03/29 09:03:20;;;;;;;19.10;16.57;;;;;;;10.03;62.33;101286.44;1741124;81;21142;-55
2021/03/29 09:05:48;;;;;;;66.22;51.65;;;;;;;10.11;62.29;101297.02;1745226;81;21134;-55
2021/03/29 09:08:16;;;;;;;34.05;28.62;;;;;;;10.18;62.44;101302.71;1743569;81;21566;-55
2021/03/29 09:10:45;;;;;;;21.95;17.40;;;;;;;10.20;62.28;101300.11;1748120;82;21208;-55
2021/03/29 09:13:15;;;;;;;14.70;11.53;;;;;;;10.20;62.10;101308.86;1748213;82;21167;-55
2021/03/29 09:15:48;;;;;;;8.63;6.95;;;;;;;10.15;61.72;101307.99;1748529;82;21167;-55
2021/03/29 09:18:18;;;;;;;8.68;6.55;;;;;;;10.18;61.94;101308.43;1740576;82;21120;-55
2021/03/29 09:20:49;;;;;;;12.70;9.83;;;;;;;10.23;61.95;101309.33;1717786;82;21171;-55
2021/03/29 09:23:28;;;;;;;13.80;10.28;;;;;;;10.23;61.95;101311.51;1700360;84;21170;-55
2021/03/29 09:25:53;;;;;;;13.00;10.10;;;;;;;10.24;61.75;101305.83;1728629;82;21281;-55
2021/03/29 09:31:22;;;;;;;6.10;3.83;;;;;;;10.30;61.83;101309.80;1742311;82;21579;-53
2021/03/29 09:33:52;;;;;;;7.90;5.55;;;;;;;10.35;61.58;101317.70;1720183;82;21175;-54
2021/03/29 09:36:22;;;;;;;7.45;5.22;;;;;;;10.39;61.63;101320.37;1708027;84;21341;-54
2021/03/29 09:38:54;;;;;;;11.28;5.78;;;;;;;10.43;61.31;101319.06;1746674;82;21119;-54
2021/03/29 09:41:32;;;;;;;9.08;4.50;;;;;;;10.44;61.65;101319.09;1747811;81;21131;-54
2021/03/29 09:44:09;;;;;;;10.15;5.05;;;;;;;10.53;61.79;101328.34;1747902;82;21195;-54
2021/03/29 09:46:37;;;;;;;9.08;4.92;;;;;;;10.59;61.58;101327.47;1731071;82;21119;-55
2021/03/29 09:49:14;;;;;;;6.03;3.50;;;;;;;10.60;61.58;101325.73;1688626;83;21508;-54
2021/03/29 09:51:47;;;;;;;4.95;3.70;;;;;;;10.58;61.33;101327.02;1718318;83;21166;-54
2021/03/29 09:54:37;;;;;;;4.37;2.58;;;;;;;10.63;61.25;101330.55;1736373;82;21151;-55
2021/03/29 09:57:18;;;;;;;5.28;3.00;;;;;;;10.62;61.27;101335.37;1685056;83;21175;-54
2021/03/29 09:59:46;;;;;;;5.05;2.98;;;;;;;10.63;60.99;101342.81;1748652;82;21159;-54
2021/03/29 10:02:24;;;;;;;6.60;3.72;;;;;;;10.66;61.00;101350.73;1713100;84;21642;-53
2021/03/29 10:05:08;;;;;;;5.72;3.52;;;;;;;10.67;60.86;101345.48;1744487;80;21621;-54
2021/03/29 10:07:52;;;;;;;17.32;13.13;;;;;;;10.68;60.85;101348.56;1740197;82;21157;-55
2021/03/29 10:10:30;;;;;;;15.20;11.28;;;;;;;10.71;61.06;101354.25;1748847;82;21204;-54
2021/03/29 10:13:12;;;;;;;18.52;11.83;;;;;;;10.72;60.91;101357.33;1755770;80;21178;-54
2021/03/29 10:15:41;;;;;;;12.63;8.00;;;;;;;10.77;60.87;101358.23;1780586;80;21724;-55
2021/03/29 10:18:13;;;;;;;23.98;15.50;;;;;;;10.81;60.96;101349.46;1762969;80;21581;-55
2021/03/29 10:20:43;;;;;;;20.27;13.58;;;;;;;10.91;61.13;101348.17;1752548;82;21154;-55
2021/03/29 10:23:30;;;;;;;22.37;14.33;;;;;;;11.00;61.42;101346.88;1717324;83;21293;-55
2021/03/29 10:26:24;;;;;;;95.00;61.63;;;;;;;11.15;61.44;101356.09;1750279;82;21140;-55
2021/03/29 10:29:02;;;;;;;83.20;55.73;;;;;;;11.27;61.18;101345.99;1753682;82;21710;-55
2021/03/29 10:31:33;;;;;;;33.02;22.87;;;;;;;11.44;61.24;101354.35;1754083;82;21184;-55
2021/03/29 10:34:01;;;;;;;37.70;23.65;;;;;;;11.55;61.39;101351.28;1754442;82;21155;-55
2021/03/29 10:36:29;;;;;;;23.98;17.62;;;;;;;11.62;61.09;101355.23;1754322;81;21566;-54
2021/03/29 10:38:58;;;;;;;34.70;29.95;;;;;;;11.64;60.84;101360.92;1754437;81;21127;-55
2021/03/29 10:41:26;;;;;;;23.45;17.67;;;;;;;11.65;60.79;101357.41;1763903;80;22527;-54
2021/03/29 10:43:53;;;;;;;27.73;23.12;;;;;;;11.65;60.90;101361.82;1754272;82;21607;-55
2021/03/29 10:46:21;;;;;;;40.92;35.63;;;;;;;11.67;61.04;101361.38;1754223;82;21577;-55
2021/03/29 10:48:49;;;;;;;80.03;68.67;;;;;;;11.67;61.34;101368.84;1754192;82;21176;-55
2021/03/29 10:51:17;;;;;;;19.60;16.20;;;;;;;11.71;61.60;101360.05;1754109;80;21206;-54
2021/03/29 10:53:45;;;;;;;18.25;14.00;;;;;;;11.78;61.72;101361.36;1754413;81;21160;-55
2021/03/29 10:56:13;;;;;;;35.52;28.57;;;;;;;11.85;61.63;101367.07;1739666;81;21149;-55
2021/03/29 10:58:43;;;;;;;31.75;25.27;;;;;;;11.92;61.48;101362.23;1727369;83;21581;-54
2021/03/29 11:01:11;;;;;;;47.08;38.15;;;;;;;11.98;61.46;101365.28;1727252;83;21146;-54
2021/03/29 11:03:40;;;;;;;19.02;16.15;;;;;;;12.02;61.44;101363.97;1693571;85;21125;-55
2021/03/29 11:06:08;;;;;;;24.70;21.55;;;;;;;12.05;61.79;101363.10;1693570;83;21168;-55
2021/03/29 11:08:36;;;;;;;23.77;21.20;;;;;;;12.17;61.98;101364.36;1692266;85;21633;-54
2021/03/29 11:11:04;;;;;;;14.00;11.48;;;;;;;12.29;61.58;101362.57;1693432;83;21191;-56
2021/03/29 11:13:32;;;;;;;12.70;9.15;;;;;;;12.36;62.07;101359.48;1693675;85;21191;-56
2021/03/29 11:16:01;;;;;;;12.75;9.00;;;;;;;12.45;61.58;101364.70;1688233;85;21582;-55
2021/03/29 11:18:28;;;;;;;9.88;7.95;;;;;;;12.55;61.74;101366.88;1687927;85;21578;-55
2021/03/29 11:20:56;;;;;;;13.15;7.85;;;;;;;12.54;61.43;101375.23;1658862;85;21648;-55
2021/03/29 11:23:25;;;;;;;11.28;7.97;;;;;;;12.61;60.68;101374.75;1655034;87;21813;-55
2021/03/29 11:25:55;;;;;;;11.33;7.85;;;;;;;12.56;59.97;101377.42;1665696;85;21123;-54
2021/03/29 11:28:23;;;;;;;11.83;8.00;;;;;;;12.41;59.47;101384.08;1672237;85;21732;-54
2021/03/29 11:30:52;;;;;;;13.48;9.20;;;;;;;12.30;59.44;101389.41;1654767;85;21177;-55
2021/03/29 11:33:21;;;;;;;16.62;12.85;;;;;;;12.19;59.48;101391.62;1659066;84;21573;-55
2021/03/29 11:35:49;;;;;;;15.15;12.55;;;;;;;12.00;59.41;101401.81;1661108;84;21540;-55
2021/03/29 11:38:16;;;;;;;22.45;18.12;;;;;;;11.92;59.73;101404.44;1680348;85;21649;-55
2021/03/29 11:40:45;;;;;;;27.02;19.95;;;;;;;11.91;60.06;101401.36;1687916;85;21299;-55
2021/03/29 11:43:13;;;;;;;18.12;12.05;;;;;;;11.95;60.08;101403.08;1680865;85;21584;-55
2021/03/29 11:45:41;;;;;;;16.85;13.25;;;;;;;12.01;59.86;101401.78;1683270;83;21141;-54
2021/03/29 11:48:10;;;;;;;16.70;12.10;;;;;;;12.00;59.75;101400.48;1688140;85;21547;-55
2021/03/29 11:50:39;;;;;;;15.75;11.75;;;;;;;11.97;60.18;101403.96;1688095;85;21194;-55